Time;durP1;ratioP1;P1;durP2;ratioP2;P2;SDS_P1;SDS_P2;PMS_P1;PMS_P2;Temp;Humidity;BMP_temperature;BMP_pressure;BME280_temperature;BME280_humidity;BME280_pressure;Samples;Min_cycle;Max_cycle;Signal;HPM_P1;HPM_P2
2022/01/25 00:24:18;;;;;;;18.80;8.50;;;;;;;-6.60;72.64;100814.36;108329;1283;138263;-59
2022/01/25 00:25:09;;;;;;;10.00;5.30;;;;;;;-6.72;72.59;100808.96;108355;1284;137827;-58
2022/01/25 00:27:50;;;;;;;24.60;6.70;;;;;;;-6.81;72.59;100806.21;108325;1284;22508;-59
2022/01/25 00:30:30;;;;;;;13.00;5.80;;;;;;;-6.79;72.65;100810.40;108353;1282;141795;-58
2022/01/25 00:32:57;;;;;;;13.60;6.10;;;;;;;-6.81;72.76;100815.63;108436;1283;22478;-58
2022/01/25 00:35:25;;;;;;;20.00;6.60;;;;;;;-6.85;72.51;100812.18;108295;1283;138594;-58
2022/01/25 00:37:53;;;;;;;10.80;6.00;;;;;;;-6.89;72.64;100811.45;108390;1284;22513;-58
2022/01/25 00:40:21;;;;;;;12.30;6.20;;;;;;;-6.91;72.55;100807.16;108279;1284;137711;-58
2022/01/25 00:42:49;;;;;;;16.20;6.70;;;;;;;-6.92;72.58;100800.22;108343;1284;23568;-58
2022/01/25 00:45:19;;;;;;;13.60;6.50;;;;;;;-6.93;72.73;100797.27;108365;1284;22511;-58
2022/01/25 00:47:48;;;;;;;13.50;6.30;;;;;;;-6.93;72.73;100797.29;108291;1283;137825;-59
2022/01/25 00:50:16;;;;;;;12.70;7.10;;;;;;;-6.94;72.90;100788.70;108437;1283;22570;-59
2022/01/25 00:55:12;;;;;;;15.20;7.00;;;;;;;-6.99;72.97;100785.42;108359;1284;23484;-58
2022/01/25 00:57:40;;;;;;;14.00;6.80;;;;;;;-7.01;73.11;100785.84;108404;1284;22242;-58
2022/01/25 01:00:09;;;;;;;15.10;7.20;;;;;;;-7.01;73.03;100786.40;108221;1284;139577;-59
2022/01/25 01:02:37;;;;;;;14.50;5.90;;;;;;;-6.99;73.00;100790.02;108387;1284;23101;-58
2022/01/25 01:05:06;;;;;;;9.80;5.70;;;;;;;-7.02;73.02;100785.98;108280;1283;139198;-58
2022/01/25 01:07:33;;;;;;;13.40;6.00;;;;;;;-7.02;73.10;100782.45;108423;1282;22276;-59
2022/01/25 01:10:03;;;;;;;12.40;5.90;;;;;;;-7.02;72.98;100781.36;108378;1284;22459;-58
2022/01/25 01:15:18;;;;;;;12.30;6.60;;;;;;;-7.07;73.04;100781.95;108412;1284;22537;-59
2022/01/25 01:48:04;;;;;;;15.00;6.40;;;;;;;-7.14;73.55;100783.17;109147;1275;139137;-59
2022/01/25 01:50:34;;;;;;;12.30;6.40;;;;;;;-7.19;73.45;100784.36;109271;1274;22490;-58
2022/01/25 01:53:03;;;;;;;13.10;6.50;;;;;;;-7.23;73.50;100783.11;109230;1274;138467;-58
2022/01/25 01:55:32;;;;;;;12.50;6.30;;;;;;;-7.25;73.55;100778.70;109198;1274;24064;-58
2022/01/25 01:58:00;;;;;;;13.20;6.70;;;;;;;-7.25;73.78;100778.85;109342;1274;23015;-58
2022/01/25 02:00:35;;;;;;;10.10;6.30;;;;;;;-7.24;73.81;100777.23;109264;1274;140957;-58
2022/01/25 02:03:03;;;;;;;13.70;6.10;;;;;;;-7.26;73.63;100770.27;109349;1274;22462;-59
2022/01/25 02:05:31;;;;;;;11.90;6.10;;;;;;;-7.30;73.69;100771.64;109209;1274;138039;-58
2022/01/25 02:08:00;;;;;;;12.10;6.20;;;;;;;-7.34;73.53;100774.09;109302;1274;22438;-59
2022/01/25 02:10:29;;;;;;;11.80;5.90;;;;;;;-7.42;73.42;100767.05;109279;1274;22676;-59
2022/01/25 02:12:57;;;;;;;9.90;5.40;;;;;;;-7.48;73.49;100771.59;109075;1274;138661;-59
2022/01/25 02:15:26;;;;;;;10.10;5.80;;;;;;;-7.51;73.58;100765.98;109299;1274;22512;-58
2022/01/25 02:23:31;;;;;;;11.90;6.40;;;;;;;-7.48;73.90;100753.93;109006;1275;138201;-58
2022/01/25 02:26:00;;;;;;;11.70;6.10;;;;;;;-7.52;74.07;100742.55;109084;1276;22509;-58
2022/01/25 02:28:30;;;;;;;12.90;6.00;;;;;;;-7.47;74.03;100748.38;109205;1276;22451;-59
2022/01/25 02:30:58;;;;;;;12.30;6.70;;;;;;;-7.45;74.10;100753.39;109075;1275;138849;-59
2022/01/25 02:33:27;;;;;;;14.50;6.80;;;;;;;-7.43;74.11;100750.93;109081;1276;22475;-59
2022/01/25 02:35:55;;;;;;;16.30;7.00;;;;;;;-7.43;74.05;100752.64;109090;1274;138942;-58
2022/01/25 02:38:25;;;;;;;11.70;6.30;;;;;;;-7.42;74.18;100748.41;109206;1274;22572;-58
2022/01/25 02:40:56;;;;;;;15.20;7.50;;;;;;;-7.40;74.29;100747.20;105746;1274;139146;-58
2022/01/25 02:43:25;;;;;;;14.20;7.60;;;;;;;-7.37;74.25;100743.83;109175;1276;22265;-58
2022/01/25 02:48:59;;;;;;;14.50;7.10;;;;;;;-7.37;74.20;100742.17;108872;1275;141046;-59
2022/01/25 02:51:32;;;;;;;12.20;6.70;;;;;;;-7.34;74.19;100735.61;109258;1275;22423;-59
2022/01/25 02:54:01;;;;;;;12.60;6.60;;;;;;;-7.31;74.27;100733.41;109147;1274;138448;-58
2022/01/25 02:56:28;;;;;;;13.60;7.10;;;;;;;-7.29;74.26;100732.77;109277;1274;22607;-59
2022/01/25 02:58:56;;;;;;;12.10;6.00;;;;;;;-7.29;74.14;100721.80;109080;1276;138525;-58
2022/01/25 03:01:24;;;;;;;11.60;5.90;;;;;;;-7.28;73.93;100718.36;109250;1273;22459;-58
2022/01/25 03:03:52;;;;;;;15.30;6.30;;;;;;;-7.30;73.69;100709.91;109298;1274;22464;-58
2022/01/25 03:06:21;;;;;;;13.40;6.80;;;;;;;-7.31;73.42;100712.06;109126;1274;139396;-58
2022/01/25 03:08:49;;;;;;;12.80;6.40;;;;;;;-7.34;73.29;100711.04;109221;1274;22378;-59
2022/01/25 03:11:19;;;;;;;13.50;8.20;;;;;;;-7.35;73.22;100711.16;109197;1274;140821;-59
2022/01/25 03:13:54;;;;;;;14.40;7.40;;;;;;;-7.37;73.35;100708.10;109317;1274;22478;-59
2022/01/25 03:16:34;;;;;;;12.50;7.40;;;;;;;-7.37;73.48;100706.34;109263;1274;24607;-58
2022/01/25 03:19:28;;;;;;;11.20;5.80;;;;;;;-7.36;73.64;100708.97;109167;1274;138719;-59
2022/01/25 03:21:54;;;;;;;11.70;6.70;;;;;;;-7.37;73.51;100705.11;109333;1274;22459;-58
2022/01/25 03:24:22;;;;;;;12.30;6.90;;;;;;;-7.39;73.34;100703.70;109198;1274;138857;-58
2022/01/25 03:26:50;;;;;;;12.70;7.20;;;;;;;-7.42;73.24;100694.95;109255;1274;22423;-58
2022/01/25 03:29:18;;;;;;;14.30;6.60;;;;;;;-7.45;73.13;100691.98;109142;1274;138775;-58
2022/01/25 03:31:45;;;;;;;14.40;6.00;;;;;;;-7.46;73.13;100683.57;109251;1274;23674;-58
2022/01/25 03:34:14;;;;;;;11.30;5.80;;;;;;;-7.48;73.15;100681.91;109252;1274;22504;-59
2022/01/25 03:36:42;;;;;;;11.40;5.90;;;;;;;-7.48;73.14;100685.63;109265;1274;138714;-58
2022/01/25 03:39:10;;;;;;;9.70;5.30;;;;;;;-7.46;73.26;100687.83;109132;1274;26635;-59
2022/01/25 03:41:38;;;;;;;10.00;5.80;;;;;;;-7.44;73.46;100683.21;104816;1275;139093;-58
2022/01/25 03:44:06;;;;;;;11.30;6.00;;;;;;;-7.42;73.53;100680.25;104841;1274;22585;-58
2022/01/25 03:47:12;;;;;;;10.80;5.90;;;;;;;-7.42;73.35;100677.44;109271;1273;23668;-58
2022/01/25 03:52:18;;;;;;;10.30;5.80;;;;;;;-7.43;73.31;100667.27;109281;1274;22488;-58
2022/01/25 03:54:48;;;;;;;10.60;6.00;;;;;;;-7.43;73.31;100660.61;109242;1273;138295;-58
2022/01/25 03:57:16;;;;;;;14.40;7.90;;;;;;;-7.43;73.46;100653.00;109349;1273;22492;-58
2022/01/25 03:59:44;;;;;;;15.10;7.70;;;;;;;-7.43;73.90;100650.73;109136;1274;140271;-58
2022/01/25 04:02:13;;;;;;;11.10;5.70;;;;;;;-7.52;74.07;100639.70;109237;1274;22414;-58
2022/01/25 04:04:41;;;;;;;13.80;6.50;;;;;;;-7.50;74.10;100645.02;109289;1274;22453;-58
2022/01/25 04:07:11;;;;;;;11.20;4.90;;;;;;;-7.53;73.94;100641.94;109176;1274;138978;-58
2022/01/25 04:09:39;;;;;;;11.00;5.70;;;;;;;-7.55;73.72;100650.56;109293;1274;23609;-58
2022/01/25 04:12:07;;;;;;;10.70;6.30;;;;;;;-7.57;73.58;100649.23;109188;1274;138800;-58
2022/01/25 04:14:56;;;;;;;9.40;5.10;;;;;;;-7.60;73.49;100647.52;109259;1274;22471;-58
2022/01/25 04:17:24;;;;;;;10.00;5.10;;;;;;;-7.63;73.46;100646.77;109090;1276;140419;-59
2022/01/25 04:20:27;;;;;;;9.10;4.60;;;;;;;-7.66;73.31;100643.10;109232;1274;22481;-58
2022/01/25 04:25:33;;;;;;;10.30;5.60;;;;;;;-7.68;73.25;100649.58;109177;1274;138375;-59
2022/01/25 04:28:01;;;;;;;8.00;5.10;;;;;;;-7.73;73.30;100652.58;109250;1274;22459;-58
2022/01/25 04:30:29;;;;;;;10.50;5.60;;;;;;;-7.73;73.62;100653.87;109117;1274;138562;-58
2022/01/25 04:33:03;;;;;;;11.00;6.10;;;;;;;-7.72;73.52;100657.08;109190;1274;22459;-58
2022/01/25 04:49:23;;;;;;;11.50;5.80;;;;;;;-7.77;73.51;100643.75;104785;1274;138699;-58
2022/01/25 04:52:05;;;;;;;14.20;6.80;;;;;;;-7.80;73.58;100638.01;104812;1274;25369;-58
2022/01/25 04:55:04;;;;;;;14.90;7.80;;;;;;;-7.86;73.67;100633.62;104708;1274;138680;-58
2022/01/25 04:57:40;;;;;;;16.10;7.70;;;;;;;-7.89;74.09;100629.46;104740;1274;24401;-58
2022/01/25 05:00:18;;;;;;;19.20;7.60;;;;;;;-7.90;74.38;100624.19;104627;1274;139515;-58
2022/01/25 05:05:54;;;;;;;13.00;6.50;;;;;;;-7.84;74.51;100623.25;109264;1272;22462;-59
2022/01/25 05:08:31;;;;;;;11.50;6.10;;;;;;;-7.83;74.50;100621.23;109409;1273;22417;-58
2022/01/25 05:11:06;;;;;;;16.90;8.60;;;;;;;-7.76;74.61;100616.83;109287;1274;23412;-59
2022/01/25 05:16:29;;;;;;;15.60;8.10;;;;;;;-7.67;74.41;100613.36;109265;1274;24825;-59
2022/01/25 05:24:42;;;;;;;;;;;;;;;-7.68;74.15;100606.36;108984;1276;139330;-58
2022/01/25 05:27:15;;;;;;;14.10;6.00;;;;;;;-7.71;73.99;100602.73;109197;1275;22549;-58
2022/01/25 05:29:44;;;;;;;11.70;5.90;;;;;;;-7.72;73.93;100603.70;109165;1275;22491;-59
2022/01/25 05:32:12;;;;;;;10.30;6.20;;;;;;;-7.77;73.86;100602.30;109082;1274;138559;-58
2022/01/25 05:34:41;;;;;;;11.70;6.30;;;;;;;-7.82;73.87;100598.63;109204;1276;23249;-59
2022/01/25 05:37:08;;;;;;;10.30;6.10;;;;;;;-7.86;73.99;100598.73;109077;1275;139561;-58
2022/01/25 05:39:37;;;;;;;14.00;6.30;;;;;;;-7.88;74.08;100594.27;109162;1275;22495;-62
2022/01/25 05:42:22;;;;;;;12.90;6.90;;;;;;;-7.87;74.36;100593.84;109104;1274;138548;-63
2022/01/25 05:47:25;;;;;;;11.30;6.10;;;;;;;-7.78;74.62;100592.52;109185;1274;22425;-63
2022/01/25 05:49:53;;;;;;;13.40;7.30;;;;;;;-7.73;74.69;100589.11;109083;1276;138477;-63
2022/01/25 05:52:21;;;;;;;13.00;7.20;;;;;;;-7.67;74.81;100588.10;109187;1275;22526;-63
2022/01/25 05:54:49;;;;;;;10.80;6.60;;;;;;;-7.62;74.74;100585.41;109059;1276;140904;-63
2022/01/25 05:57:17;;;;;;;11.20;6.40;;;;;;;-7.56;74.62;100587.81;109133;1277;22478;-63
2022/01/25 05:59:45;;;;;;;12.80;5.90;;;;;;;-7.54;74.59;100589.77;109163;1274;22648;-63
2022/01/25 06:02:18;;;;;;;12.50;7.20;;;;;;;-7.51;74.55;100590.73;109057;1274;139836;-63
2022/01/25 06:04:46;;;;;;;12.80;7.00;;;;;;;-7.53;74.25;100592.82;109120;1274;22463;-63
2022/01/25 06:07:14;;;;;;;12.90;7.00;;;;;;;-7.52;74.43;100589.45;109071;1276;140575;-63
2022/01/25 06:09:49;;;;;;;11.70;6.70;;;;;;;-7.49;74.46;100588.67;109140;1274;23650;-63
2022/01/25 06:12:17;;;;;;;10.20;6.10;;;;;;;-7.50;74.40;100585.38;109038;1275;139920;-63
2022/01/25 06:14:44;;;;;;;11.50;6.50;;;;;;;-7.43;74.51;100594.58;109206;1276;22449;-63
2022/01/25 06:17:13;;;;;;;11.70;6.50;;;;;;;-7.40;74.44;100593.13;109113;1275;23552;-63
2022/01/25 06:19:41;;;;;;;10.40;6.20;;;;;;;-7.38;74.47;100595.23;109027;1274;139468;-63
2022/01/25 06:22:09;;;;;;;11.10;6.00;;;;;;;-7.38;74.22;100592.58;109210;1276;23243;-63
2022/01/25 06:24:38;;;;;;;11.50;6.10;;;;;;;-7.38;74.20;100588.71;109056;1274;138894;-63
2022/01/25 06:27:06;;;;;;;13.20;6.60;;;;;;;-7.34;74.36;100586.32;109175;1274;22654;-62
2022/01/25 06:29:35;;;;;;;13.10;6.80;;;;;;;-7.31;74.19;100587.29;109192;1274;22527;-62
2022/01/25 06:32:03;;;;;;;10.00;6.00;;;;;;;-7.31;74.12;100582.55;109031;1274;138391;-62
2022/01/25 06:34:31;;;;;;;11.00;6.50;;;;;;;-7.25;74.11;100583.31;109093;1275;23598;-62
2022/01/25 06:36:59;;;;;;;14.90;6.30;;;;;;;-7.21;74.01;100582.65;109043;1275;140639;-63
2022/01/25 06:39:27;;;;;;;11.30;6.90;;;;;;;-7.19;73.92;100582.60;108544;1274;22594;-62
2022/01/25 06:41:55;;;;;;;11.50;5.70;;;;;;;-7.17;73.72;100582.80;104544;1277;139129;-61
2022/01/25 06:44:23;;;;;;;10.10;5.90;;;;;;;-7.17;73.64;100584.24;104705;1275;24231;-62
2022/01/25 06:46:51;;;;;;;9.10;5.60;;;;;;;-7.18;73.20;100585.92;104766;1274;24288;-61
2022/01/25 06:49:19;;;;;;;9.50;5.20;;;;;;;-7.25;72.80;100581.69;104724;1276;138667;-61
2022/01/25 06:52:07;;;;;;;10.20;5.50;;;;;;;-7.36;72.56;100575.49;104728;1277;24065;-62
2022/01/25 06:54:38;;;;;;;11.60;6.30;;;;;;;-7.46;72.54;100566.23;104726;1276;139635;-62
2022/01/25 06:57:06;;;;;;;11.10;6.10;;;;;;;-7.55;72.69;100555.40;104766;1276;25150;-62
2022/01/25 06:59:34;;;;;;;14.00;6.10;;;;;;;-7.55;73.07;100551.41;104700;1277;24262;-62
2022/01/25 07:02:03;;;;;;;14.30;7.10;;;;;;;-7.54;73.30;100548.27;104672;1276;138862;-63
2022/01/25 07:04:33;;;;;;;18.70;7.90;;;;;;;-7.48;73.39;100550.33;109144;1274;23271;-62
2022/01/25 07:07:01;;;;;;;11.80;6.00;;;;;;;-7.44;73.48;100548.82;109088;1274;138897;-62
2022/01/25 07:09:29;;;;;;;11.30;5.60;;;;;;;-7.45;73.20;100548.19;109169;1276;22452;-62
2022/01/25 07:11:57;;;;;;;12.70;7.50;;;;;;;-7.48;72.98;100543.43;109143;1274;140773;-62
2022/01/25 07:14:25;;;;;;;14.70;7.70;;;;;;;-7.49;73.28;100543.31;109265;1274;23287;-62
2022/01/25 07:16:54;;;;;;;12.30;7.40;;;;;;;-7.45;73.43;100541.80;109235;1274;22420;-62
2022/01/25 07:19:24;;;;;;;12.80;8.00;;;;;;;-7.40;73.52;100539.85;109071;1274;138282;-63
2022/01/25 07:21:52;;;;;;;14.90;7.90;;;;;;;-7.36;73.47;100537.40;109299;1274;23249;-62
2022/01/25 07:24:20;;;;;;;17.20;9.20;;;;;;;-7.33;73.32;100532.38;109105;1274;138673;-62
2022/01/25 07:26:50;;;;;;;22.60;11.20;;;;;;;-7.29;73.35;100533.70;109229;1274;22483;-62
2022/01/25 07:29:25;;;;;;;19.40;10.10;;;;;;;-7.25;73.52;100531.21;109195;1276;23277;-62
2022/01/25 07:31:53;;;;;;;17.30;7.80;;;;;;;-7.20;73.59;100529.73;109071;1274;138822;-63
2022/01/25 07:34:26;;;;;;;13.90;6.80;;;;;;;-7.13;73.59;100528.70;109047;1276;23519;-63
2022/01/25 07:37:00;;;;;;;13.70;7.40;;;;;;;-7.07;73.59;100525.94;109146;1274;138695;-63
2022/01/25 07:39:28;;;;;;;10.20;6.10;;;;;;;-7.00;73.42;100523.61;109271;1275;23104;-57
2022/01/25 07:42:04;;;;;;;12.20;6.50;;;;;;;-6.92;73.35;100521.21;109152;1274;138964;-57
2022/01/25 07:44:46;;;;;;;11.70;7.20;;;;;;;-6.88;73.11;100512.57;109245;1274;22435;-57
2022/01/25 07:47:14;;;;;;;14.70;6.30;;;;;;;-6.85;72.96;100515.84;109172;1276;23941;-57
2022/01/25 07:49:48;;;;;;;12.80;8.40;;;;;;;-6.80;72.83;100513.90;108897;1276;139487;-57
2022/01/25 07:52:17;;;;;;;19.70;9.30;;;;;;;-6.77;72.84;100512.94;109139;1276;22450;-56
2022/01/25 07:54:45;;;;;;;15.80;8.80;;;;;;;-6.74;72.66;100507.58;109010;1275;138729;-56
2022/01/25 07:57:13;;;;;;;16.40;8.90;;;;;;;-6.73;72.40;100503.63;109062;1274;23747;-56
2022/01/25 07:59:41;;;;;;;15.60;8.10;;;;;;;-6.80;71.97;100496.38;109221;1274;22448;-57
2022/01/25 08:02:11;;;;;;;14.00;7.30;;;;;;;-6.90;71.91;100495.64;108986;1274;138801;-57
2022/01/25 08:04:45;;;;;;;14.30;7.10;;;;;;;-6.95;71.96;100499.76;109175;1275;24928;-57
2022/01/25 08:07:15;;;;;;;16.80;7.80;;;;;;;-7.01;71.94;100506.42;108711;1276;140516;-57
2022/01/25 08:09:50;;;;;;;12.30;7.50;;;;;;;-7.07;72.07;100501.94;109041;1274;22473;-57
2022/01/25 08:12:22;;;;;;;16.10;7.80;;;;;;;-7.09;72.19;100499.08;109096;1274;139401;-56
2022/01/25 08:14:53;;;;;;;11.70;7.10;;;;;;;-7.07;72.30;100492.95;108965;1274;22631;-57
2022/01/25 08:17:27;;;;;;;17.00;7.40;;;;;;;-7.04;72.35;100489.69;109284;1274;23167;-56
2022/01/25 08:20:03;;;;;;;11.40;6.70;;;;;;;-6.99;72.36;100486.45;109090;1274;138155;-57
2022/01/25 08:22:33;;;;;;;10.20;6.20;;;;;;;-6.93;72.47;100481.53;109105;1274;22509;-57
2022/01/25 08:25:06;;;;;;;10.40;5.60;;;;;;;-6.87;72.38;100475.41;109107;1274;138435;-57
2022/01/25 08:27:36;;;;;;;12.30;6.20;;;;;;;-6.83;72.18;100477.16;109248;1274;22396;-57
2022/01/25 08:30:04;;;;;;;12.00;7.80;;;;;;;-6.81;71.91;100474.35;109103;1274;138839;-57
2022/01/25 08:32:35;;;;;;;12.80;6.90;;;;;;;-6.82;71.58;100472.36;109269;1274;23688;-57
2022/01/25 08:35:04;;;;;;;11.80;6.70;;;;;;;-6.87;71.38;100469.55;109306;1274;22550;-57
2022/01/25 08:37:37;;;;;;;15.80;8.60;;;;;;;-6.92;71.23;100465.73;109010;1274;138247;-58
2022/01/25 08:40:12;;;;;;;16.30;8.60;;;;;;;-6.95;71.32;100464.97;109016;1274;24341;-57
2022/01/25 08:42:48;;;;;;;14.00;7.50;;;;;;;-6.96;71.35;100464.29;109057;1274;139524;-57
2022/01/25 08:45:17;;;;;;;15.40;8.20;;;;;;;-6.95;71.47;100462.95;108990;1276;22571;-58
2022/01/25 08:47:58;;;;;;;16.90;8.40;;;;;;;-6.90;70.97;100462.58;109062;1274;139948;-57
2022/01/25 08:50:28;;;;;;;16.00;8.80;;;;;;;-6.94;70.54;100462.35;109050;1276;22451;-57
2022/01/25 08:53:02;;;;;;;15.20;7.90;;;;;;;-7.01;70.39;100452.36;109132;1276;23606;-57
2022/01/25 08:55:34;;;;;;;18.40;8.00;;;;;;;-7.04;70.38;100447.64;108975;1276;139109;-57
2022/01/25 08:58:02;;;;;;;17.60;9.50;;;;;;;-7.09;70.24;100445.22;109170;1275;23641;-57
2022/01/25 09:00:30;;;;;;;12.40;7.60;;;;;;;-7.09;70.56;100447.17;109005;1275;139702;-56
2022/01/25 09:03:12;;;;;;;14.10;7.90;;;;;;;-7.04;70.67;100446.63;109105;1276;22634;-57
2022/01/25 09:05:43;;;;;;;13.80;7.80;;;;;;;-6.97;70.63;100450.23;109032;1276;23137;-57
2022/01/25 09:08:16;;;;;;;18.00;8.40;;;;;;;-6.90;70.48;100445.79;109001;1276;138772;-57
2022/01/25 09:10:44;;;;;;;15.50;8.10;;;;;;;-6.89;70.31;100436.88;109123;1274;22644;-56
2022/01/25 09:13:12;;;;;;;20.50;9.80;;;;;;;-6.96;69.76;100427.03;109114;1274;138638;-57
2022/01/25 09:15:40;;;;;;;15.10;9.50;;;;;;;-7.03;69.47;100425.48;109316;1274;22555;-56
2022/01/25 09:18:08;;;;;;;15.20;8.90;;;;;;;-7.10;69.74;100423.96;109158;1274;138602;-56
2022/01/25 09:20:36;;;;;;;22.20;10.80;;;;;;;-7.08;70.21;100414.06;109159;1276;22469;-57
2022/01/25 09:23:04;;;;;;;21.00;10.40;;;;;;;-7.00;70.35;100410.26;109115;1275;24908;-57
2022/01/25 09:25:32;;;;;;;18.10;10.60;;;;;;;-6.94;70.37;100403.77;109147;1276;138686;-57
2022/01/25 09:28:00;;;;;;;19.90;10.20;;;;;;;-6.86;70.64;100403.77;109135;1276;23613;-57
2022/01/25 09:30:28;;;;;;;16.50;9.40;;;;;;;-6.75;70.70;100400.98;108830;1276;138809;-57
2022/01/25 09:32:57;;;;;;;17.90;9.60;;;;;;;-6.68;70.47;100396.52;109141;1276;22419;-57
2022/01/25 09:35:25;;;;;;;18.20;10.30;;;;;;;-6.62;70.37;100400.73;109010;1276;22555;-57
2022/01/25 09:37:53;;;;;;;19.90;10.60;;;;;;;-6.56;70.37;100395.32;109148;1274;138644;-57
2022/01/25 09:40:21;;;;;;;23.90;12.70;;;;;;;-6.51;70.22;100396.82;106875;1274;22584;-55
2022/01/25 09:42:54;;;;;;;23.00;11.50;;;;;;;-6.46;70.37;100391.81;104756;1274;138900;-55
2022/01/25 09:45:23;;;;;;;24.80;10.90;;;;;;;-6.43;70.04;100395.42;104868;1274;22575;-54
2022/01/25 09:47:51;;;;;;;21.10;8.50;;;;;;;-6.40;69.89;100390.09;109228;1274;22470;-54
2022/01/25 09:50:19;;;;;;;19.90;8.40;;;;;;;-6.38;69.91;100385.86;109139;1274;138346;-55
2022/01/25 09:52:47;;;;;;;13.10;7.50;;;;;;;-6.37;69.84;100380.48;109218;1274;22469;-55
2022/01/25 09:55:17;;;;;;;16.00;8.00;;;;;;;-6.36;69.81;100376.65;109120;1273;139454;-55
2022/01/25 09:57:45;;;;;;;17.90;8.20;;;;;;;-6.36;69.73;100368.89;109240;1274;22759;-55
2022/01/25 10:00:16;;;;;;;21.20;10.70;;;;;;;-6.32;69.61;100365.38;109161;1273;139397;-54
2022/01/25 10:02:52;;;;;;;21.40;9.90;;;;;;;-6.32;69.41;100363.27;109103;1274;23539;-56
2022/01/25 10:05:27;;;;;;;22.50;10.80;;;;;;;-6.34;69.22;100361.28;109322;1273;22507;-55
2022/01/25 10:08:06;;;;;;;31.60;13.20;;;;;;;-6.34;69.29;100359.57;109197;1273;139058;-55
2022/01/25 10:10:36;;;;;;;37.70;15.40;;;;;;;-6.35;69.34;100358.39;109257;1274;22532;-54
2022/01/25 10:13:26;;;;;;;27.40;11.60;;;;;;;-6.34;69.31;100358.13;109238;1272;139520;-55
2022/01/25 10:16:07;;;;;;;28.10;13.50;;;;;;;-6.32;69.45;100356.51;109263;1273;23483;-55
2022/01/25 10:18:43;;;;;;;30.60;14.10;;;;;;;-6.33;69.16;100354.08;109026;1273;139683;-55
2022/01/25 10:21:15;;;;;;;37.50;15.90;;;;;;;-6.31;69.11;100349.20;109286;1273;22533;-55
2022/01/25 10:24:06;;;;;;;33.40;14.40;;;;;;;-6.33;69.10;100348.48;109299;1273;22459;-55
2022/01/25 10:26:42;;;;;;;24.30;12.30;;;;;;;-6.37;69.04;100345.47;109103;1274;138411;-55
2022/01/25 10:29:14;;;;;;;20.80;10.10;;;;;;;-6.38;69.07;100343.09;109267;1273;22685;-55
2022/01/25 10:31:45;;;;;;;18.30;9.50;;;;;;;-6.37;69.23;100341.56;109167;1274;139293;-55
2022/01/25 10:34:17;;;;;;;14.20;8.00;;;;;;;-6.33;69.24;100341.05;109260;1273;22403;-54
2022/01/25 10:36:48;;;;;;;16.00;8.30;;;;;;;-6.29;69.24;100337.02;109159;1273;139238;-55
2022/01/25 10:39:21;;;;;;;15.50;8.40;;;;;;;-6.26;69.36;100325.29;109220;1274;22553;-55
2022/01/25 10:41:49;;;;;;;16.60;9.00;;;;;;;-6.25;69.27;100315.80;109279;1273;22500;-54
2022/01/25 10:44:17;;;;;;;17.10;9.30;;;;;;;-6.23;69.27;100307.00;109180;1274;138282;-55
2022/01/25 10:46:45;;;;;;;15.20;8.80;;;;;;;-6.19;69.16;100304.63;109229;1273;22462;-55
2022/01/25 10:49:13;;;;;;;14.90;8.50;;;;;;;-6.17;69.17;100302.30;108912;1274;140693;-55
2022/01/25 10:51:45;;;;;;;18.30;9.40;;;;;;;-6.12;69.09;100298.26;109272;1273;23227;-55
2022/01/25 10:54:15;;;;;;;24.80;11.80;;;;;;;-6.10;68.94;100298.41;109265;1273;23402;-55
2022/01/25 10:56:48;;;;;;;29.60;13.30;;;;;;;-6.08;68.95;100293.27;109108;1274;138178;-55
2022/01/25 10:59:20;;;;;;;21.60;10.50;;;;;;;-6.05;68.97;100290.16;109203;1274;22384;-55
2022/01/25 11:01:51;;;;;;;21.60;11.80;;;;;;;-6.02;68.95;100282.36;109105;1274;139087;-55
2022/01/25 11:04:24;;;;;;;17.70;9.70;;;;;;;-5.98;68.81;100281.84;109206;1274;22491;-55
2022/01/25 11:07:04;;;;;;;16.10;9.10;;;;;;;-5.98;68.77;100280.73;109093;1274;139414;-54
2022/01/25 11:09:37;;;;;;;16.90;7.40;;;;;;;-5.94;68.78;100280.20;109207;1273;23328;-54
2022/01/25 11:12:07;;;;;;;15.50;8.20;;;;;;;-5.91;68.71;100275.36;109169;1274;23658;-54
2022/01/25 11:14:50;;;;;;;20.50;10.70;;;;;;;-5.89;68.50;100270.23;109116;1274;138239;-54
2022/01/25 11:17:20;;;;;;;19.70;9.60;;;;;;;-5.91;68.42;100265.58;109241;1274;22495;-55
2022/01/25 11:19:48;;;;;;;17.90;10.40;;;;;;;-5.88;68.54;100259.35;109111;1274;139192;-54
2022/01/25 11:22:20;;;;;;;16.20;8.40;;;;;;;-5.85;68.60;100260.61;109263;1274;22580;-55
2022/01/25 11:24:53;;;;;;;19.30;9.80;;;;;;;-5.79;68.78;100261.46;109100;1274;138493;-55
2022/01/25 11:27:22;;;;;;;17.20;8.70;;;;;;;-5.75;68.56;100258.33;109278;1274;22510;-55
2022/01/25 11:29:51;;;;;;;19.20;9.90;;;;;;;-5.75;68.57;100251.02;109257;1274;23312;-55
2022/01/25 11:32:23;;;;;;;15.60;8.50;;;;;;;-5.77;68.42;100248.75;108902;1274;139300;-55
2022/01/25 11:34:51;;;;;;;14.10;8.50;;;;;;;-5.79;68.57;100241.38;109014;1273;22439;-55
2022/01/25 11:37:19;;;;;;;26.30;13.90;;;;;;;-5.78;68.46;100238.23;109145;1273;138221;-55
2022/01/25 11:39:49;;;;;;;31.10;14.90;;;;;;;-5.77;68.33;100232.70;108022;1273;25264;-54
2022/01/25 11:42:26;;;;;;;28.40;12.10;;;;;;;-5.80;68.15;100226.08;104669;1274;139186;-54
2022/01/25 11:44:56;;;;;;;20.20;10.30;;;;;;;-5.85;68.13;100219.07;109073;1273;220698;-55
2022/01/25 11:48:37;;;;;;;20.70;10.20;;;;;;;-5.87;68.38;100210.03;102219;1300;546029;-55
2022/01/25 11:51:14;;;;;;;18.90;9.60;;;;;;;-5.88;68.38;100202.34;103597;1287;26101;-54
2022/01/25 11:53:43;;;;;;;13.00;7.30;;;;;;;-5.86;68.18;100198.96;103609;1287;22617;-55
2022/01/25 11:56:11;;;;;;;16.60;8.70;;;;;;;-5.86;68.28;100191.23;103504;1287;137582;-54
2022/01/25 11:58:40;;;;;;;25.60;12.10;;;;;;;-5.85;68.14;100188.98;108030;1287;27118;-54
2022/01/25 12:01:18;;;;;;;20.10;10.10;;;;;;;-5.87;68.09;100186.73;107957;1286;137188;-55
2022/01/25 12:03:49;;;;;;;17.00;9.00;;;;;;;-5.89;68.21;100186.21;108339;1285;22482;-54
2022/01/25 12:06:21;;;;;;;17.90;9.00;;;;;;;-5.93;68.14;100180.93;108222;1286;22599;-54
2022/01/25 12:11:43;;;;;;;14.70;8.70;;;;;;;-5.94;68.17;100182.77;108348;1285;22610;-54
2022/01/25 12:14:22;;;;;;;16.20;8.50;;;;;;;-5.97;68.38;100180.52;108221;1286;137753;-54
2022/01/25 12:17:03;;;;;;;13.50;8.20;;;;;;;-5.97;68.30;100174.02;108326;1284;22685;-54
2022/01/25 12:19:47;;;;;;;14.30;7.80;;;;;;;-5.97;68.42;100172.59;108241;1285;138799;-54
2022/01/25 12:22:35;;;;;;;12.20;7.60;;;;;;;-5.96;68.39;100169.48;108634;1281;22633;-55
2022/01/25 12:25:26;;;;;;;10.90;6.50;;;;;;;-5.97;68.18;100158.66;108552;1280;139812;-54
2022/01/25 12:28:07;;;;;;;13.00;7.00;;;;;;;-5.95;68.12;100158.48;108658;1280;23308;-54
2022/01/25 12:30:53;;;;;;;13.90;6.70;;;;;;;-5.97;68.02;100152.81;108586;1280;139419;-54
2022/01/25 12:33:26;;;;;;;14.90;8.10;;;;;;;-5.98;67.93;100150.97;108669;1280;22444;-55
2022/01/25 12:36:00;;;;;;;13.90;8.10;;;;;;;-5.98;67.89;100148.62;108611;1280;22458;-55
2022/01/25 12:38:29;;;;;;;13.60;8.50;;;;;;;-5.99;67.98;100145.75;108536;1280;139269;-55
2022/01/25 12:40:59;;;;;;;14.60;8.90;;;;;;;-5.99;68.18;100137.45;108645;1281;22479;-55
2022/01/25 12:43:34;;;;;;;14.50;8.30;;;;;;;-5.98;68.01;100135.75;108528;1281;138757;-55
2022/01/25 12:46:15;;;;;;;13.30;7.90;;;;;;;-5.97;68.03;100135.28;108588;1283;22580;-55
2022/01/25 12:48:48;;;;;;;12.00;6.70;;;;;;;-5.95;67.90;100129.64;108499;1282;139048;-55
2022/01/25 12:51:24;;;;;;;14.30;8.00;;;;;;;-5.96;67.73;100129.75;108573;1282;22457;-54
2022/01/25 12:53:53;;;;;;;16.40;8.20;;;;;;;-5.97;67.74;100129.08;108590;1282;22680;-55
2022/01/25 12:56:24;;;;;;;13.80;8.90;;;;;;;-5.98;67.60;100131.28;108479;1281;139469;-55
2022/01/25 12:58:54;;;;;;;15.40;8.40;;;;;;;-5.98;67.48;100133.66;108440;1283;22468;-55
2022/01/25 13:01:23;;;;;;;14.70;8.50;;;;;;;-5.98;67.64;100127.80;108435;1282;137840;-55
2022/01/25 13:03:53;;;;;;;22.40;10.60;;;;;;;-5.99;67.72;100131.89;108530;1283;22515;-55
2022/01/25 13:06:23;;;;;;;18.60;10.20;;;;;;;-5.98;67.69;100130.30;108528;1282;22485;-55